Lovington, New Mexico
Current Conditions -  °F | °C
As of 2:50 PM on Thursday 27 Nov 2014 (Local Time) from KHOB Reporting Station
Clear Clear  
Wind Chill: 59°   Ceiling: Unl
Heat Index: 59°   Visibility: 10mi
Dew Point: 28°   Wind: 13mph
Humidity: 31%   Direction: 170°S
Pressure: 30.32"   Gusts: 17mph
Location:  32.94°N, 103.34°W
Report Text: KHOB 272150Z 17011G15KT 10SM SKC 15/M02 A3032
Loading
Personal Weather Stations






























Interactive Weather Map New forecast layout! Learn more

10-Day Weather Forecast

Advertisements
Track Severe Weather on mobile